createdAt,value
2018-12-14T00:02:25.044Z,22.8
2018-12-14T00:05:33.473Z,22.8
2018-12-14T00:08:39.420Z,22.9
2018-12-14T00:11:46.304Z,22.8
2018-12-14T00:14:52.185Z,22.8
2018-12-14T00:17:58.120Z,22.8
2018-12-14T00:21:04.076Z,22.9
2018-12-14T00:24:09.954Z,23
2018-12-14T00:27:15.894Z,23
2018-12-14T00:30:21.769Z,22.9
2018-12-14T00:33:27.918Z,23
2018-12-14T00:36:33.791Z,23
2018-12-14T00:39:39.834Z,23
2018-12-14T00:42:45.708Z,23
2018-12-14T00:45:51.651Z,23
2018-12-14T00:48:57.712Z,23
2018-12-14T00:52:03.609Z,23.1
2018-12-14T00:55:09.631Z,23.1
2018-12-14T00:58:15.593Z,23.1
2018-12-14T01:01:21.550Z,23.2
2018-12-14T01:04:27.489Z,23.2
2018-12-14T01:07:33.573Z,23
2018-12-14T01:10:39.634Z,22.6
2018-12-14T01:13:45.591Z,22.7
2018-12-14T01:16:51.557Z,22.7
2018-12-14T01:19:57.521Z,22.9
2018-12-14T01:23:03.470Z,23
2018-12-14T01:26:09.344Z,22.9
2018-12-14T01:29:15.419Z,23
2018-12-14T01:32:21.347Z,22.9
2018-12-14T01:35:27.724Z,23
2018-12-14T01:38:33.674Z,23.1
2018-12-14T01:41:39.641Z,22.9
2018-12-14T01:44:45.695Z,23
2018-12-14T01:47:51.568Z,23
2018-12-14T01:50:57.620Z,23.1
2018-12-14T01:54:03.580Z,23
2018-12-14T01:57:09.634Z,23.1
2018-12-14T02:00:15.700Z,23
2018-12-14T02:03:21.658Z,23.1
2018-12-14T02:06:30.485Z,23.1
2018-12-14T02:09:36.364Z,23.3
2018-12-14T02:12:42.400Z,23.2
2018-12-14T02:15:48.279Z,23
2018-12-14T02:18:54.215Z,23
2018-12-14T02:22:00.088Z,22.8
2018-12-14T02:25:09.188Z,22.7
2018-12-14T02:28:15.005Z,22.7
2018-12-14T02:31:21.129Z,22.8
2018-12-14T02:34:27.003Z,22.8
2018-12-14T02:37:32.942Z,22.8
2018-12-14T02:40:38.903Z,22.8
2018-12-14T02:43:44.772Z,22.7
2018-12-14T02:46:50.769Z,22.5
2018-12-14T02:49:56.641Z,22.6
2018-12-14T02:53:02.638Z,22.7
2018-12-14T02:56:08.712Z,22.5
2018-12-14T02:59:14.637Z,22.6
2018-12-14T03:02:20.621Z,22.6
2018-12-14T03:05:26.685Z,22.5
2018-12-14T03:08:32.580Z,22.5
2018-12-14T03:11:38.594Z,22.3
2018-12-14T03:14:44.475Z,22.3
2018-12-14T03:17:53.073Z,22.3
2018-12-14T03:20:59.031Z,22.5
2018-12-14T03:24:04.910Z,22.5
2018-12-14T03:27:11.051Z,22.6
2018-12-14T03:30:17.114Z,22.4
2018-12-14T03:33:23.174Z,22.4
2018-12-14T03:36:29.053Z,22.3
2018-12-14T03:39:35.298Z,22.4
2018-12-14T03:42:41.464Z,22.2
2018-12-14T03:45:47.422Z,22.2
2018-12-14T03:48:53.385Z,22.7
2018-12-14T03:51:59.443Z,22.5
2018-12-14T03:55:05.407Z,22.3
2018-12-14T03:58:11.297Z,22.3
2018-12-14T04:01:17.218Z,22.2
2018-12-14T04:04:23.185Z,22.3
2018-12-14T04:07:29.139Z,22.2
2018-12-14T04:10:35.198Z,22.9
2018-12-14T04:13:41.260Z,22.3
2018-12-14T04:16:47.223Z,22.2
2018-12-14T04:19:53.182Z,22.4
2018-12-14T04:22:59.141Z,22.1
2018-12-14T04:26:05.102Z,21.9
2018-12-14T04:29:11.162Z,22
2018-12-14T04:32:17.122Z,22
2018-12-14T04:35:23.184Z,22
2018-12-14T04:38:30.093Z,21.9
2018-12-14T04:41:36.128Z,21.9
2018-12-14T04:44:42.189Z,21.9
2018-12-14T04:47:48.149Z,21.8
2018-12-14T04:50:54.207Z,21.8
2018-12-14T04:54:00.085Z,21.9
2018-12-14T04:57:06.127Z,21.9
2018-12-14T05:00:12.065Z,21.9
2018-12-14T05:03:18.042Z,21.9
2018-12-14T05:06:24.003Z,21.8
2018-12-14T05:09:29.887Z,21.8
2018-12-14T05:12:35.819Z,21.8
2018-12-14T05:15:41.697Z,21.8
2018-12-14T05:18:47.743Z,21.9
2018-12-14T05:21:56.655Z,21.9
2018-12-14T05:25:02.624Z,21.8
2018-12-14T05:28:08.693Z,21.8
2018-12-14T05:31:17.534Z,21.8
2018-12-14T05:34:23.481Z,21.7
2018-12-14T05:37:29.458Z,21.8
2018-12-14T05:40:35.509Z,21.9
2018-12-14T05:43:41.377Z,22.6
2018-12-14T05:46:47.436Z,100
2018-12-14T05:49:56.033Z,100
2018-12-14T05:53:02.104Z,100
2018-12-14T05:56:07.976Z,100
2018-12-14T05:59:14.934Z,100
2018-12-14T06:02:20.900Z,100
2018-12-14T06:05:26.961Z,100
2018-12-14T06:08:32.847Z,100
2018-12-14T06:11:39.080Z,100
2018-12-14T06:14:47.910Z,100
2018-12-14T06:17:53.786Z,100
2018-12-14T06:20:59.846Z,100
2018-12-14T06:24:05.902Z,100
2018-12-14T06:27:11.947Z,100
2018-12-14T06:30:17.841Z,100
2018-12-14T06:33:23.773Z,100
2018-12-14T06:36:29.730Z,100
2018-12-14T06:39:35.798Z,100
2018-12-14T06:42:41.745Z,100
2018-12-14T06:45:47.623Z,100
2018-12-14T06:48:53.672Z,100
2018-12-14T06:51:59.833Z,100
2018-12-14T06:55:05.704Z,100
2018-12-14T06:58:11.746Z,100
2018-12-14T07:01:17.824Z,100
2018-12-14T07:04:23.877Z,100
2018-12-14T07:07:29.763Z,100
2018-12-14T07:10:35.798Z,100
2018-12-14T07:13:44.004Z,100
2018-12-14T07:16:49.970Z,100
2018-12-14T07:19:56.027Z,100
2018-12-14T07:23:02.184Z,100
2018-12-14T07:26:08.259Z,100
2018-12-14T07:29:14.413Z,100
2018-12-14T07:32:20.372Z,100
2018-12-14T07:35:26.330Z,100
2018-12-14T07:38:32.307Z,100
2018-12-14T07:41:38.187Z,100
2018-12-14T07:44:44.309Z,100
2018-12-14T07:47:51.727Z,100
2018-12-14T07:50:57.765Z,100
2018-12-14T07:54:03.723Z,100
2018-12-14T07:57:09.689Z,100
2018-12-14T08:00:15.764Z,100
2018-12-14T08:03:21.916Z,100
2018-12-14T08:06:27.888Z,100
2018-12-14T08:09:33.935Z,100
2018-12-14T08:12:40.011Z,100
2018-12-14T08:15:45.958Z,100
2018-12-14T08:18:52.227Z,100
2018-12-14T08:21:58.199Z,100
2018-12-14T08:25:04.462Z,100
2018-12-14T08:28:10.520Z,100
2018-12-14T08:31:16.582Z,100
2018-12-14T08:34:22.468Z,100
2018-12-14T08:37:28.495Z,100
2018-12-14T08:40:35.475Z,100
2018-12-14T08:43:42.360Z,100
2018-12-14T08:46:48.423Z,100
2018-12-14T08:49:55.409Z,100
2018-12-14T08:53:01.294Z,100
2018-12-14T08:56:07.436Z,100
2018-12-14T08:59:13.486Z,100
2018-12-14T09:02:19.857Z,100
2018-12-14T09:05:26.127Z,100
2018-12-14T09:08:32.183Z,100
2018-12-14T09:11:38.245Z,100
2018-12-14T09:14:44.206Z,100
2018-12-14T09:17:51.024Z,100
2018-12-14T09:21:01.761Z,100
2018-12-14T09:24:08.022Z,100
2018-12-14T09:27:13.987Z,100
2018-12-14T09:30:19.921Z,100
2018-12-14T09:33:25.889Z,100
2018-12-14T09:36:34.824Z,100
2018-12-14T09:39:43.470Z,100
2018-12-14T09:42:49.619Z,100
2018-12-14T09:45:55.579Z,100
2018-12-14T09:49:02.705Z,100
2018-12-14T09:52:08.627Z,100
2018-12-14T09:55:14.691Z,100
2018-12-14T09:58:20.683Z,100
2018-12-14T10:01:27.684Z,100
2018-12-14T10:04:33.804Z,100
2018-12-14T10:07:39.858Z,100
2018-12-14T10:10:52.094Z,100
2018-12-14T10:14:01.605Z,100
2018-12-14T10:17:10.159Z,100
2018-12-14T10:20:16.181Z,100
2018-12-14T10:23:22.266Z,100
2018-12-14T10:26:28.614Z,100
2018-12-14T10:29:34.678Z,100
2018-12-14T10:32:40.655Z,100
2018-12-14T10:35:46.777Z,100
2018-12-14T10:38:52.719Z,100
2018-12-14T10:41:58.822Z,100
2018-12-14T10:45:04.783Z,100
2018-12-14T10:48:10.756Z,100
2018-12-14T10:51:16.635Z,100
2018-12-14T10:54:22.762Z,100
2018-12-14T10:57:28.929Z,100
2018-12-14T11:00:34.907Z,100
2018-12-14T11:03:40.950Z,100
2018-12-14T11:06:46.837Z,100
2018-12-14T11:09:52.766Z,100
2018-12-14T11:12:58.674Z,100
2018-12-14T11:16:05.604Z,100
2018-12-14T11:19:11.574Z,100
2018-12-14T11:22:17.739Z,100
2018-12-14T11:25:23.892Z,100
2018-12-14T11:28:29.767Z,100
2018-12-14T11:31:36.733Z,100
2018-12-14T11:34:42.899Z,100
2018-12-14T11:37:48.856Z,100
2018-12-14T11:40:54.917Z,100
2018-12-14T11:44:00.815Z,100
2018-12-14T11:47:06.838Z,100
2018-12-14T11:50:19.494Z,100
2018-12-14T11:53:25.396Z,100
2018-12-14T11:56:31.455Z,100
2018-12-14T11:59:37.430Z,100
2018-12-14T12:02:44.119Z,100
2018-12-14T12:05:49.986Z,100
2018-12-14T12:08:56.184Z,100
2018-12-14T12:12:02.393Z,100
2018-12-14T12:15:10.303Z,100
2018-12-14T12:18:16.261Z,100
2018-12-14T12:21:22.202Z,100
2018-12-14T12:24:29.208Z,100
2018-12-14T12:27:35.161Z,100
2018-12-14T12:30:41.110Z,100
2018-12-14T12:33:47.081Z,100
2018-12-14T12:36:53.139Z,100
2018-12-14T12:39:59.203Z,100
2018-12-14T12:43:05.371Z,100
2018-12-14T12:46:11.631Z,100
2018-12-14T12:49:17.516Z,100
2018-12-14T12:52:23.611Z,100
2018-12-14T12:55:29.718Z,100
2018-12-14T12:58:35.779Z,100
2018-12-14T13:01:42.795Z,100
2018-12-14T13:04:48.831Z,100
2018-12-14T13:07:54.898Z,100
2018-12-14T13:11:01.075Z,100
2018-12-14T13:14:07.318Z,100
2018-12-14T13:17:14.431Z,100
2018-12-14T13:20:20.577Z,100
2018-12-14T13:23:26.733Z,100
2018-12-14T13:26:32.691Z,100
2018-12-14T13:29:38.594Z,100
2018-12-14T13:32:44.629Z,100
2018-12-14T13:35:51.440Z,100
2018-12-14T13:38:57.451Z,100
2018-12-14T13:42:03.407Z,100
2018-12-14T13:45:09.376Z,100
2018-12-14T13:48:15.279Z,100
2018-12-14T13:51:22.414Z,100
2018-12-14T13:54:28.475Z,100
2018-12-14T13:57:34.446Z,100
2018-12-14T14:00:40.428Z,100
2018-12-14T14:01:38.126Z,27.5
2018-12-14T14:04:44.297Z,24.1
2018-12-14T14:07:50.177Z,24
2018-12-14T14:10:56.235Z,23.8
2018-12-14T14:14:02.312Z,23.8
2018-12-14T14:17:08.345Z,23.8
2018-12-14T14:20:16.250Z,23.9
2018-12-14T14:23:22.140Z,24.1
